Terminal Aerodrome Forecast
Issued by NWS

Home | Current Version | Previous Version | Text Only | Print | Product List | Glossary Off
Versions: 1 2 3 4 5 6 7 8 9 10 11 12 13 14 15 16 17 18 19 20 21 22

000
FTUS43 KBIS 131741
TAFMOT
TAF
KMOT 131741Z 1318/1418 16007KT P6SM SCT250
     FM140000 21008KT P6SM BKN250
     FM140500 24008KT P6SM BKN150
     FM140900 26012KT P6SM BKN070
     FM141200 29016G25KT P6SM -SHSN BKN035
     FM141600 30018G28KT P6SM -SHSN SCT015 BKN020=

USA.gov is the U.S. government's official web portal to all federal, state and local government web resources and services.